Time;durP1;ratioP1;P1;durP2;ratioP2;P2;SDS_P1;SDS_P2;PMS_P1;PMS_P2;Temp;Humidity;BMP_temperature;BMP_pressure;BME280_temperature;BME280_humidity;BME280_pressure;Samples;Min_cycle;Max_cycle;Signal;HPM_P1;HPM_P2
2024/03/22 00:01:51;;;;;;;26.03;19.70;;;7.10;96.90;;;5.78;100.00;98536.31;5066946;28;21195;-78
2024/03/22 00:04:17;;;;;;;27.90;21.00;;;7.00;98.10;;;6.08;100.00;98597.44;5068946;28;20475;-79
2024/03/22 00:06:49;;;;;;;26.57;19.93;;;6.90;99.10;;;6.03;100.00;98597.94;5059778;28;20471;-78
2024/03/22 00:09:17;;;;;;;24.17;19.67;;;6.90;99.80;;;6.03;100.00;98589.91;5076604;28;21217;-79
2024/03/22 00:11:45;;;;;;;25.33;20.57;;;6.80;99.90;;;6.03;100.00;98594.44;5056833;28;20488;-79
2024/03/22 00:14:12;;;;;;;22.23;19.83;;;6.80;99.90;;;5.70;100.00;98541.69;5080176;28;21059;-80
2024/03/22 00:16:39;;;;;;;26.93;20.43;;;6.80;99.90;;;5.94;100.00;98594.44;5064187;28;20469;-80
2024/03/22 00:19:06;;;;;;;24.67;20.07;;;6.70;99.90;;;5.94;100.00;98594.44;5060081;28;20475;-81
2024/03/22 00:21:33;;;;;;;26.40;19.60;;;6.70;99.90;;;6.18;100.00;98582.00;5054225;28;20471;-80
2024/03/22 00:24:00;;;;;;;24.43;18.90;;;6.80;99.90;;;6.15;100.00;98582.34;5062672;28;20536;-78
2024/03/22 00:26:30;;;;;;;31.03;19.80;;;6.90;99.90;;;6.12;100.00;98582.66;5055727;28;20468;-79
2024/03/22 00:28:57;;;;;;;26.43;20.10;;;6.90;99.90;;;6.38;100.00;98589.63;5048626;28;20476;-78
2024/03/22 00:31:25;;;;;;;26.60;19.73;;;6.90;99.90;;;6.29;100.00;98563.81;5081128;28;20524;-79
2024/03/22 00:33:51;;;;;;;24.60;19.47;;;6.90;99.90;;;6.22;100.00;98561.84;5054755;28;21008;-79
2024/03/22 00:36:18;;;;;;;30.13;21.53;;;6.90;99.70;;;6.15;100.00;98590.41;5060628;28;20469;-78
2024/03/22 00:38:45;;;;;;;28.37;21.27;;;6.80;98.80;;;5.99;100.00;98585.00;5057690;28;21319;-78
2024/03/22 00:41:12;;;;;;;30.33;20.60;;;6.60;99.10;;;6.02;100.00;98574.00;5055800;28;20690;-80
2024/03/22 00:43:39;;;;;;;31.50;21.63;;;6.50;99.90;;;5.79;100.00;98561.28;5056476;28;20927;-79
2024/03/22 00:46:07;;;;;;;33.23;23.57;;;6.40;99.90;;;5.81;100.00;98567.28;5062222;28;20489;-79
2024/03/22 00:48:35;;;;;;;30.37;22.63;;;6.30;99.90;;;5.68;100.00;98565.97;5062526;28;20471;-79
2024/03/22 00:51:02;;;;;;;28.33;21.60;;;6.20;99.90;;;5.41;100.00;98502.88;5062094;28;20473;-80
2024/03/22 00:53:29;;;;;;;29.37;22.57;;;6.30;99.90;;;5.84;100.00;98574.19;5061336;28;20477;-79
2024/03/22 00:55:59;;;;;;;31.47;21.27;;;6.40;99.90;;;5.82;100.00;98558.25;5057649;28;20470;-78
2024/03/22 00:58:27;;;;;;;31.17;21.37;;;6.40;99.90;;;5.74;100.00;98569.00;5057419;28;20486;-78
2024/03/22 01:00:56;;;;;;;30.03;22.03;;;6.40;99.90;;;5.65;100.00;98568.19;5058916;28;20476;-78
2024/03/22 01:03:23;;;;;;;26.93;19.97;;;6.30;99.90;;;5.62;100.00;98553.28;5057098;28;20480;-79
2024/03/22 01:05:50;;;;;;;31.73;19.50;;;6.30;99.90;;;5.59;100.00;98550.09;5065437;28;20548;-78
2024/03/22 01:08:17;;;;;;;30.30;21.03;;;6.30;99.90;;;5.56;100.00;98545.06;5055489;28;20894;-78
2024/03/22 01:10:44;;;;;;;34.87;20.13;;;6.20;99.90;;;5.45;100.00;98554.31;5052838;28;20527;-78
2024/03/22 01:13:11;;;;;;;30.53;21.10;;;6.10;99.90;;;5.36;100.00;98551.63;5059859;28;20478;-78
2024/03/22 01:15:38;;;;;;;30.50;19.33;;;6.00;99.90;;;5.10;100.00;98501.75;5070727;28;20489;-79
2024/03/22 01:18:05;;;;;;;30.47;21.57;;;6.00;99.90;;;5.27;100.00;98544.59;5055248;28;20488;-79
2024/03/22 01:20:33;;;;;;;34.07;21.00;;;6.00;99.90;;;5.19;100.00;98532.06;5045130;28;20525;-78
2024/03/22 01:23:00;;;;;;;29.37;21.47;;;5.90;99.90;;;5.19;100.00;98539.25;5049443;28;20475;-78
2024/03/22 01:25:28;;;;;;;31.27;21.10;;;5.90;99.90;;;5.12;100.00;98535.56;5052092;28;20476;-77
2024/03/22 01:27:55;;;;;;;25.90;19.13;;;5.80;99.90;;;5.05;100.00;98530.88;5062004;28;20488;-78
2024/03/22 01:30:23;;;;;;;29.03;19.70;;;5.70;99.90;;;4.99;100.00;98519.97;5046957;28;20480;-80
2024/03/22 01:32:49;;;;;;;29.93;20.17;;;5.60;99.90;;;5.07;100.00;98544.91;5052565;28;20541;-82
2024/03/22 01:35:18;;;;;;;29.87;19.30;;;5.70;99.90;;;4.94;100.00;98518.66;5063563;28;20466;-79
2024/03/22 01:37:44;;;;;;;31.30;20.53;;;5.70;99.90;;;5.04;100.00;98537.22;5052522;28;20489;-79
2024/03/22 01:40:15;;;;;;;26.73;18.67;;;5.60;99.90;;;4.83;100.00;98510.94;5058713;28;20473;-79
2024/03/22 01:42:41;;;;;;;29.37;20.10;;;5.60;99.90;;;4.79;100.00;98542.59;5062827;28;20502;-81
2024/03/22 01:45:10;;;;;;;30.27;20.70;;;5.50;99.90;;;4.54;100.00;98531.81;5060411;28;20544;-79
2024/03/22 01:47:37;;;;;;;26.70;18.73;;;5.30;99.90;;;4.71;100.00;98550.59;5061482;28;20972;-80
2024/03/22 01:50:06;;;;;;;24.23;19.03;;;5.30;99.90;;;4.72;100.00;98552.25;5066342;28;20469;-81
2024/03/22 01:52:34;;;;;;;25.40;18.20;;;5.30;99.90;;;4.62;100.00;98535.50;5067324;28;20490;-82
2024/03/22 01:55:02;;;;;;;29.00;21.00;;;5.30;99.90;;;4.73;100.00;98558.47;5064835;28;20473;-80
2024/03/22 01:57:31;;;;;;;27.80;20.03;;;5.30;99.90;;;4.54;100.00;98534.50;5060096;28;20487;-81
2024/03/22 02:00:00;;;;;;;24.07;17.93;;;5.30;99.90;;;4.65;100.00;98545.91;5057044;28;20482;-81
2024/03/22 02:02:27;;;;;;;31.13;19.50;;;5.30;99.90;;;4.59;100.00;98542.03;5066369;28;20525;-81
2024/03/22 02:04:54;;;;;;;27.90;20.00;;;5.30;99.90;;;4.45;100.00;98535.47;5070866;28;21154;-79
2024/03/22 02:07:20;;;;;;;31.40;20.33;;;5.30;99.90;;;4.31;100.00;98517.38;5060586;28;20948;-81
2024/03/22 02:09:49;;;;;;;28.13;18.33;;;5.30;99.90;;;4.36;100.00;98509.72;5062316;28;20508;-80
2024/03/22 02:12:16;;;;;;;32.53;21.00;;;5.30;99.90;;;4.44;100.00;98528.44;5062265;28;20473;-80
2024/03/22 02:14:43;;;;;;;34.20;20.87;;;5.20;99.90;;;4.14;100.00;98521.84;5057983;28;20479;-76
2024/03/22 02:17:11;;;;;;;30.60;21.27;;;5.20;99.90;;;4.16;100.00;98493.09;5060611;28;21019;-80
2024/03/22 02:19:37;;;;;;;28.73;19.43;;;5.20;99.90;;;4.31;100.00;98507.53;5060244;28;20469;-79
2024/03/22 02:22:05;;;;;;;32.93;21.07;;;5.20;99.90;;;4.07;100.00;98469.00;5064760;28;21165;-78
2024/03/22 02:24:32;;;;;;;29.47;18.90;;;5.20;99.90;;;3.99;100.00;98508.22;5058083;28;20583;-80
2024/03/22 02:27:00;;;;;;;28.03;19.70;;;5.10;99.90;;;4.13;100.00;98494.25;5063227;28;20602;-81
2024/03/22 02:29:26;;;;;;;30.20;19.20;;;5.00;99.90;;;4.13;100.00;98499.59;5059217;28;20663;-81
2024/03/22 02:31:54;;;;;;;32.53;19.77;;;5.00;99.90;;;4.04;100.00;98495.25;5059986;28;20481;-81
2024/03/22 02:34:20;;;;;;;23.93;18.20;;;4.90;99.90;;;3.78;100.00;98488.09;5057847;28;20468;-80
2024/03/22 02:36:47;;;;;;;29.60;18.27;;;4.80;99.90;;;3.69;100.00;98501.41;5061662;28;20584;-81
2024/03/22 02:39:14;;;;;;;26.60;18.30;;;4.80;99.90;;;3.53;100.00;98477.28;5066222;28;20493;-80
2024/03/22 02:41:42;;;;;;;25.07;18.63;;;4.70;99.90;;;3.61;100.00;98490.72;5056552;28;20561;-79
2024/03/22 02:44:09;;;;;;;28.37;19.20;;;4.70;99.90;;;3.62;100.00;98487.03;5060313;28;20477;-77
2024/03/22 02:46:36;;;;;;;24.70;17.90;;;4.70;99.90;;;3.57;100.00;98500.03;5062756;28;20476;-79
2024/03/22 02:49:02;;;;;;;31.07;18.80;;;4.60;99.90;;;3.43;100.00;98487.28;5059345;28;20492;-78
2024/03/22 02:51:30;;;;;;;24.40;17.90;;;4.60;99.90;;;3.45;100.00;98488.75;5064884;28;20570;-78
2024/03/22 02:53:56;;;;;;;30.13;19.60;;;4.50;99.90;;;3.43;100.00;98476.59;5057484;28;20462;-79
2024/03/22 02:56:24;;;;;;;28.00;18.70;;;4.50;99.90;;;3.61;100.00;98484.50;5060624;28;20478;-80
2024/03/22 02:58:51;;;;;;;32.47;20.60;;;4.40;99.90;;;3.51;100.00;98477.47;5067019;28;20478;-78
2024/03/22 03:01:19;;;;;;;28.30;19.40;;;4.40;99.90;;;3.40;100.00;98449.16;5068928;28;20556;-79
2024/03/22 03:03:45;;;;;;;27.63;18.33;;;4.40;99.90;;;3.54;100.00;98465.59;5062592;28;20466;-78
2024/03/22 03:06:13;;;;;;;32.67;19.83;;;4.40;99.90;;;3.52;100.00;98472.94;5057368;28;20674;-80
2024/03/22 03:08:39;;;;;;;29.67;19.83;;;4.40;99.90;;;3.62;100.00;98471.00;5053836;28;20855;-80
2024/03/22 03:11:06;;;;;;;30.40;20.37;;;4.40;99.90;;;3.58;100.00;98458.09;5076830;28;21263;-78
2024/03/22 03:13:32;;;;;;;31.40;21.23;;;4.30;99.90;;;3.60;100.00;98467.66;5059164;28;20553;-77
2024/03/22 03:16:01;;;;;;;30.60;20.50;;;4.40;99.90;;;3.56;100.00;98460.94;5057951;28;20492;-80
2024/03/22 03:18:27;;;;;;;32.03;21.33;;;4.30;99.90;;;3.54;100.00;98457.59;5055576;28;20486;-80
2024/03/22 03:20:54;;;;;;;30.67;20.23;;;4.30;99.90;;;3.53;100.00;98447.91;5054724;28;20658;-79
2024/03/22 03:23:21;;;;;;;32.97;20.47;;;4.30;99.90;;;3.54;100.00;98446.91;5065141;28;20496;-78
2024/03/22 03:25:48;;;;;;;30.87;20.37;;;4.30;99.90;;;3.55;100.00;98453.91;5052685;28;21001;-80
2024/03/22 03:28:14;;;;;;;29.47;21.10;;;4.30;99.90;;;3.47;100.00;98452.03;5058549;28;20472;-80
2024/03/22 03:30:42;;;;;;;32.63;20.40;;;4.30;99.90;;;3.48;100.00;98463.56;5072965;28;20494;-78
2024/03/22 03:33:09;;;;;;;30.37;19.57;;;4.20;99.90;;;3.43;100.00;98455.22;5047944;28;20489;-80
2024/03/22 03:35:37;;;;;;;28.27;20.03;;;4.20;99.90;;;3.40;100.00;98462.53;5061841;28;20478;-77
2024/03/22 03:38:03;;;;;;;30.40;20.00;;;4.20;99.90;;;2.77;100.00;98375.53;5067219;28;20555;-78
2024/03/22 03:40:30;;;;;;;30.90;19.67;;;4.10;99.90;;;3.17;100.00;98442.69;5068091;28;20480;-76
2024/03/22 03:42:57;;;;;;;35.20;19.43;;;4.10;99.90;;;3.22;100.00;98454.59;5057410;28;20470;-78
2024/03/22 03:45:24;;;;;;;27.37;18.70;;;4.10;99.90;;;3.23;100.00;98471.44;5064794;28;20477;-79
2024/03/22 03:47:50;;;;;;;32.50;19.60;;;3.90;99.90;;;3.05;100.00;98440.28;5062030;28;20477;-77
2024/03/22 03:50:19;;;;;;;31.80;20.33;;;3.90;99.90;;;3.17;100.00;98450.72;5062529;28;20512;-78
2024/03/22 03:52:45;;;;;;;31.07;20.67;;;4.00;99.90;;;3.25;100.00;98458.75;5057046;28;20484;-79
2024/03/22 03:55:12;;;;;;;33.00;21.00;;;4.00;99.90;;;3.33;100.00;98453.47;5068991;28;20478;-78
2024/03/22 03:57:39;;;;;;;34.43;21.07;;;4.10;99.90;;;3.34;100.00;98452.47;5055546;28;21042;-80
2024/03/22 04:00:09;;;;;;;38.10;21.03;;;4.10;99.90;;;3.31;100.00;98459.97;5058200;28;20477;-81
2024/03/22 04:02:35;;;;;;;27.77;19.23;;;4.10;99.90;;;3.34;100.00;98452.47;5063600;28;20461;-81
2024/03/22 04:05:02;;;;;;;32.33;20.20;;;4.10;99.90;;;3.33;100.00;98450.81;5055411;28;20469;-76
2024/03/22 04:07:30;;;;;;;31.03;20.53;;;4.10;99.90;;;3.39;100.00;98449.34;5057886;28;20481;-77
2024/03/22 04:10:00;;;;;;;31.00;21.03;;;4.10;99.90;;;3.39;100.00;98455.50;5062002;28;20495;-76
2024/03/22 04:12:26;;;;;;;31.17;20.13;;;4.10;99.90;;;3.30;100.00;98448.47;5060636;28;20465;-77
2024/03/22 04:14:54;;;;;;;27.10;19.70;;;4.10;99.90;;;3.19;100.00;98438.03;5055710;28;20512;-80
2024/03/22 04:17:20;;;;;;;30.07;20.47;;;4.10;99.90;;;3.20;100.00;98442.38;5056992;28;20511;-81
2024/03/22 04:19:50;;;;;;;30.57;20.50;;;4.00;99.90;;;3.22;100.00;98448.41;5073919;28;20461;-80
2024/03/22 04:22:16;;;;;;;33.90;20.63;;;4.00;99.90;;;3.11;100.00;98447.69;5054814;28;20460;-81
2024/03/22 04:24:45;;;;;;;26.33;19.97;;;4.00;99.90;;;3.24;100.00;98444.59;5058250;28;21269;-81
2024/03/22 04:27:11;;;;;;;32.07;21.30;;;4.00;99.90;;;3.33;100.00;98445.47;5060219;28;20491;-81
2024/03/22 04:29:38;;;;;;;34.40;22.07;;;4.10;99.90;;;3.35;100.00;98438.13;5058885;28;20550;-79
2024/03/22 04:32:05;;;;;;;30.33;20.57;;;4.10;99.90;;;3.38;100.00;98445.81;5062350;28;20612;-79
2024/03/22 04:34:32;;;;;;;32.33;21.00;;;4.10;99.90;;;3.29;100.00;98433.44;5060892;28;20488;-79
2024/03/22 04:36:59;;;;;;;36.60;23.37;;;4.10;99.90;;;3.43;100.00;98441.84;5058128;28;20472;-80
2024/03/22 04:39:27;;;;;;;32.90;21.80;;;4.10;99.90;;;2.96;100.00;98377.19;5056975;28;20484;-80
2024/03/22 04:41:55;;;;;;;34.60;20.80;;;4.10;99.90;;;3.22;100.00;98427.03;5058656;28;20473;-79
2024/03/22 04:44:25;;;;;;;34.10;21.83;;;4.10;99.90;;;3.33;100.00;98432.09;5053703;28;20480;-80
2024/03/22 04:46:52;;;;;;;27.13;19.23;;;4.20;99.90;;;3.37;100.00;98446.81;5062417;28;20491;-79
2024/03/22 04:49:19;;;;;;;32.23;20.63;;;4.10;99.90;;;3.26;100.00;98463.09;5060240;28;20476;-79
2024/03/22 04:51:46;;;;;;;29.50;19.87;;;4.00;99.90;;;2.71;100.00;98386.81;5061872;28;20920;-79
2024/03/22 04:54:13;;;;;;;28.87;17.77;;;3.80;99.90;;;3.18;100.00;98457.72;5061651;28;20496;-80
2024/03/22 04:56:39;;;;;;;28.90;19.37;;;3.80;99.90;;;3.23;100.00;98452.75;5058785;28;20561;-79
2024/03/22 04:59:08;;;;;;;26.40;17.80;;;3.80;99.90;;;3.24;100.00;98451.75;5057995;28;20590;-80
2024/03/22 05:01:34;;;;;;;29.80;19.17;;;3.80;99.90;;;3.19;100.00;98454.91;5054666;28;20519;-80
2024/03/22 05:04:02;;;;;;;32.27;20.30;;;3.80;99.90;;;3.19;100.00;98444.22;5062829;28;20485;-77
2024/03/22 05:06:28;;;;;;;28.90;19.50;;;3.80;99.90;;;3.19;100.00;98449.56;5061293;28;20481;-79
2024/03/22 05:08:55;;;;;;;26.07;18.07;;;3.80;99.90;;;3.14;100.00;98445.69;5057875;28;20468;-78
2024/03/22 05:11:22;;;;;;;29.87;19.10;;;3.80;99.90;;;3.10;100.00;98451.31;5059967;28;20476;-78
2024/03/22 05:13:49;;;;;;;30.70;19.37;;;3.80;99.90;;;3.15;100.00;98450.03;5063919;28;20904;-77
2024/03/22 05:16:17;;;;;;;31.03;18.60;;;3.70;99.90;;;3.16;100.00;98449.88;5060246;28;21014;-76
2024/03/22 05:18:44;;;;;;;27.80;19.47;;;3.80;99.90;;;3.21;100.00;98447.56;5066276;28;20495;-77
2024/03/22 05:21:11;;;;;;;32.97;20.07;;;3.80;99.90;;;3.25;100.00;98448.06;5062895;28;20524;-78
2024/03/22 05:23:39;;;;;;;35.03;21.57;;;3.90;99.90;;;3.13;100.00;98444.84;5058278;28;20492;-77
2024/03/22 05:26:05;;;;;;;35.13;21.27;;;3.90;99.90;;;3.03;100.00;98423.59;5054853;28;21069;-79
2024/03/22 05:28:33;;;;;;;34.43;20.73;;;4.00;99.90;;;3.17;100.00;98440.03;5052764;28;20501;-78
2024/03/22 05:30:59;;;;;;;31.90;20.67;;;4.00;99.90;;;2.63;100.00;98382.28;5056019;28;20470;-80
2024/03/22 05:33:28;;;;;;;34.07;21.20;;;3.90;99.90;;;3.23;100.00;98450.06;5049323;28;20914;-74
2024/03/22 05:35:55;;;;;;;28.53;18.93;;;4.00;99.90;;;3.13;100.00;98420.00;5084508;28;20480;-80
2024/03/22 05:38:22;;;;;;;33.50;21.20;;;4.00;99.90;;;3.28;100.00;98431.75;5063561;28;20972;-71
2024/03/22 05:40:48;;;;;;;36.63;20.37;;;4.00;99.90;;;3.47;100.00;98424.50;5063371;28;20468;-72
2024/03/22 05:43:16;;;;;;;32.00;20.80;;;4.10;99.90;;;3.40;100.00;98425.13;5053620;28;20522;-73
2024/03/22 05:45:43;;;;;;;39.80;22.30;;;4.20;99.90;;;3.37;100.00;98424.63;5054418;28;20579;-72
2024/03/22 05:48:10;;;;;;;31.87;21.57;;;4.20;99.90;;;3.17;100.00;98398.13;5057274;28;20476;-73
2024/03/22 05:50:39;;;;;;;32.80;20.00;;;4.20;99.90;;;3.49;100.00;98417.16;5059681;28;20478;-73
2024/03/22 05:53:05;;;;;;;25.20;18.63;;;4.30;99.90;;;2.95;100.00;98338.94;5056014;28;21055;-72
2024/03/22 05:55:33;;;;;;;29.33;19.00;;;4.30;99.90;;;3.45;100.00;98418.47;5051641;28;20526;-73
2024/03/22 05:57:59;;;;;;;31.03;19.50;;;4.30;99.90;;;3.64;100.00;98415.56;5057576;28;20851;-73
2024/03/22 06:00:27;;;;;;;31.93;19.97;;;4.40;99.90;;;3.66;100.00;98413.56;5059540;28;20482;-72
2024/03/22 06:02:53;;;;;;;31.70;20.30;;;4.50;99.90;;;3.69;100.00;98402.53;5064341;28;20872;-72
2024/03/22 06:05:20;;;;;;;29.10;18.27;;;4.50;99.90;;;3.57;100.00;98403.84;5064449;28;20465;-72
2024/03/22 06:07:48;;;;;;;31.63;20.37;;;4.50;99.90;;;3.67;100.00;98404.53;5060207;28;20474;-71
2024/03/22 06:10:16;;;;;;;30.53;21.43;;;4.50;99.90;;;3.68;100.00;98406.22;5061466;28;20483;-72
2024/03/22 06:12:46;;;;;;;31.87;19.70;;;4.60;99.90;;;3.83;100.00;98402.91;5062239;28;20969;-73
2024/03/22 06:15:14;;;;;;;28.10;19.50;;;4.60;99.90;;;4.19;100.00;98391.97;5043114;28;20480;-74
2024/03/22 06:17:42;;;;;;;31.27;20.30;;;4.90;99.90;;;4.04;100.00;98382.94;5050411;28;20470;-74
2024/03/22 06:20:11;;;;;;;27.97;18.57;;;4.90;99.50;;;4.13;100.00;98379.25;5063589;28;20504;-70
2024/03/22 06:22:38;;;;;;;32.57;19.20;;;5.00;98.60;;;4.10;100.00;98368.88;5063391;28;20965;-77
2024/03/22 06:25:08;;;;;;;28.13;20.30;;;4.90;98.00;;;4.25;100.00;98374.44;5060371;28;20470;-70
2024/03/22 06:27:34;;;;;;;31.97;19.97;;;5.00;98.10;;;4.56;100.00;98362.22;5059779;28;20482;-71
2024/03/22 06:30:01;;;;;;;31.40;21.43;;;5.20;98.10;;;4.69;100.00;98365.22;5059847;28;20469;-71
2024/03/22 06:32:28;;;;;;;27.57;19.27;;;5.40;97.20;;;5.11;100.00;98368.66;5054691;28;20885;-73
2024/03/22 06:34:55;;;;;;;26.33;17.60;;;5.70;97.00;;;5.08;100.00;98369.84;5075468;28;20973;-73
2024/03/22 06:37:22;;;;;;;25.87;18.07;;;5.90;94.70;;;5.44;99.48;98367.72;5059130;28;20913;-74
2024/03/22 06:39:49;;;;;;;24.03;18.13;;;6.10;94.40;;;5.51;96.11;98363.31;5062097;28;20496;-78
2024/03/22 06:42:17;;;;;;;27.03;18.87;;;6.30;92.60;;;5.46;96.42;98376.41;5057965;28;20571;-73
2024/03/22 06:44:44;;;;;;;24.60;17.53;;;6.40;91.50;;;5.81;96.62;98358.97;5057044;28;20547;-71
2024/03/22 06:47:10;;;;;;;21.63;16.77;;;6.50;91.70;;;5.91;95.05;98369.47;5060411;28;20807;-72
2024/03/22 06:49:38;;;;;;;26.13;17.63;;;6.60;91.20;;;6.07;93.45;98368.59;5055749;28;20471;-72
2024/03/22 06:52:05;;;;;;;22.57;18.53;;;6.90;90.70;;;6.50;93.13;98362.72;5058417;28;20489;-70
2024/03/22 06:54:32;;;;;;;23.83;16.90;;;7.10;90.90;;;6.82;91.46;98361.78;5063018;28;20518;-71
2024/03/22 06:56:58;;;;;;;22.13;15.67;;;7.30;90.50;;;7.04;89.10;98368.91;5055736;28;20486;-72
2024/03/22 06:59:28;;;;;;;25.20;16.03;;;7.60;89.50;;;7.13;88.17;98360.78;5061767;28;20498;-69
2024/03/22 07:01:55;;;;;;;24.23;16.80;;;7.70;88.90;;;6.97;88.99;98351.88;5061807;28;20489;-71
2024/03/22 07:04:22;;;;;;;22.70;15.47;;;7.70;88.30;;;7.18;87.50;98350.31;5059564;28;20990;-70
2024/03/22 07:06:48;;;;;;;25.23;17.20;;;7.80;87.80;;;7.15;86.97;98345.31;5057747;28;20477;-75
2024/03/22 07:09:16;;;;;;;23.67;17.50;;;7.80;87.30;;;7.30;86.64;98351.50;5055621;28;20515;-71
2024/03/22 07:11:44;;;;;;;22.37;17.57;;;7.90;87.00;;;7.19;87.69;98350.13;5061194;28;20482;-68
2024/03/22 07:14:12;;;;;;;22.00;16.43;;;7.90;86.90;;;7.62;85.76;98346.75;5034511;28;20899;-71
2024/03/22 07:16:39;;;;;;;21.20;16.70;;;8.10;86.90;;;7.41;86.05;98346.69;5052313;28;20480;-73
2024/03/22 07:19:07;;;;;;;26.07;16.73;;;8.10;86.40;;;7.43;87.05;98350.03;5061495;28;20577;-73
2024/03/22 07:21:33;;;;;;;20.30;17.00;;;8.10;86.50;;;7.53;85.99;98345.22;5063209;28;20471;-72
2024/03/22 07:24:01;;;;;;;26.30;17.73;;;8.20;86.50;;;7.64;86.16;98341.19;5055260;28;21088;-73
2024/03/22 07:26:27;;;;;;;25.13;16.50;;;8.20;86.50;;;7.75;85.75;98356.00;5059541;28;20483;-68
2024/03/22 07:28:57;;;;;;;29.43;17.03;;;8.30;86.50;;;8.32;87.56;98330.09;5056430;28;20486;-85
2024/03/22 07:31:24;;;;;;;22.47;15.50;;;8.80;88.50;;;8.26;84.86;98338.94;5059676;28;20565;-67
2024/03/22 07:33:55;;;;;;;24.07;16.10;;;8.90;86.70;;;8.06;84.01;98339.59;5059570;28;20485;-75
2024/03/22 07:36:22;;;;;;;22.23;16.47;;;8.90;85.50;;;8.12;82.77;98335.31;5056714;28;20996;-69
2024/03/22 07:38:50;;;;;;;22.13;15.70;;;8.80;85.20;;;8.36;82.43;98335.94;5058536;28;20498;-68
2024/03/22 07:41:17;;;;;;;21.60;14.60;;;8.90;85.10;;;8.61;81.15;98331.00;5061184;28;20480;-69
2024/03/22 07:43:45;;;;;;;18.87;15.90;;;9.10;84.70;;;8.69;81.48;98329.19;5064495;28;20551;-66
2024/03/22 07:46:12;;;;;;;24.63;16.20;;;9.20;84.60;;;8.50;82.08;98329.66;5076423;28;20575;-65
2024/03/22 07:48:39;;;;;;;21.53;16.60;;;9.20;84.70;;;8.16;83.94;98333.91;5059707;28;20491;-66
2024/03/22 07:51:07;;;;;;;22.30;16.80;;;9.10;84.60;;;8.34;82.72;98343.38;5057876;28;20481;-65
2024/03/22 07:53:35;;;;;;;20.10;15.60;;;9.10;84.30;;;7.69;83.59;98263.47;5060351;28;20486;-66
2024/03/22 07:56:01;;;;;;;20.97;15.47;;;9.10;84.30;;;8.52;83.13;98334.88;5044424;28;20482;-65
2024/03/22 07:58:29;;;;;;;21.30;16.90;;;9.20;84.90;;;8.69;83.24;98332.72;5054205;28;20485;-66
2024/03/22 08:00:56;;;;;;;19.47;14.97;;;9.30;85.00;;;8.89;81.28;98327.47;5065999;28;20476;-65
2024/03/22 08:03:23;;;;;;;26.20;17.70;;;9.50;84.30;;;9.09;80.40;98325.94;5076409;28;20483;-65
2024/03/22 08:05:50;;;;;;;20.47;15.77;;;9.70;84.10;;;8.79;79.55;98263.16;5059870;28;20483;-66
2024/03/22 08:08:18;;;;;;;21.60;16.50;;;9.80;84.00;;;9.42;78.98;98327.97;5060665;28;20479;-66
2024/03/22 08:10:45;;;;;;;23.00;17.33;;;9.90;83.50;;;9.80;77.44;98337.47;5062518;28;21319;-66
2024/03/22 08:13:12;;;;;;;22.07;16.23;;;10.10;82.20;;;10.10;75.93;98327.16;5077198;28;20484;-66
2024/03/22 08:15:38;;;;;;;18.73;15.00;;;10.30;82.30;;;9.34;76.86;98335.22;5060643;28;20467;-66
2024/03/22 08:18:09;;;;;;;21.10;15.07;;;10.10;81.00;;;9.60;75.74;98322.84;5063008;28;20956;-66
2024/03/22 08:20:38;;;;;;;19.90;16.40;;;10.20;81.30;;;9.75;76.97;98328.13;5026073;28;20980;-65
2024/03/22 08:23:06;;;;;;;22.43;16.23;;;10.30;81.40;;;10.12;76.31;98313.44;5060336;28;20475;-66
2024/03/22 08:25:34;;;;;;;21.63;15.43;;;10.40;81.70;;;10.27;75.06;98316.78;5059331;28;20483;-65
2024/03/22 08:28:02;;;;;;;19.57;16.30;;;10.70;80.90;;;10.69;73.00;98308.53;5060794;28;20839;-64
2024/03/22 08:30:28;;;;;;;22.37;15.90;;;11.00;80.40;;;10.44;73.42;98306.47;5059197;28;20759;-65
2024/03/22 08:32:55;;;;;;;21.77;16.90;;;11.00;80.00;;;10.61;73.00;98298.78;5043631;28;20467;-65
2024/03/22 08:35:22;;;;;;;19.30;15.20;;;11.00;80.10;;;10.35;73.24;98307.66;5060566;28;20527;-66
2024/03/22 08:37:50;;;;;;;21.40;15.50;;;11.00;79.70;;;9.51;76.22;98313.28;5060870;28;20486;-65
2024/03/22 08:40:17;;;;;;;20.50;16.40;;;10.50;80.00;;;9.49;77.86;98316.19;5061459;28;20623;-67
2024/03/22 08:42:45;;;;;;;21.83;15.77;;;10.20;81.00;;;9.78;77.89;98307.97;5039184;28;20483;-65
2024/03/22 08:45:13;;;;;;;22.53;17.03;;;10.30;81.40;;;10.00;76.68;98314.03;5060854;28;20553;-68
2024/03/22 08:47:42;;;;;;;21.83;16.67;;;10.40;81.10;;;10.25;75.58;98309.97;5058614;28;20680;-66
2024/03/22 08:50:11;;;;;;;17.50;15.57;;;10.60;80.80;;;10.66;74.53;98308.94;5044155;28;20484;-65
2024/03/22 08:52:39;;;;;;;17.53;15.70;;;10.90;81.00;;;10.97;72.29;98314.72;5073980;28;20488;-65
2024/03/22 08:55:10;;;;;;;20.50;15.97;;;11.30;80.20;;;10.89;71.19;98307.69;5063083;28;20486;-65
2024/03/22 08:57:37;;;;;;;18.37;16.20;;;11.50;79.10;;;11.39;70.05;98301.72;5053415;28;20479;-66
2024/03/22 09:00:08;;;;;;;19.77;15.63;;;11.70;79.00;;;11.48;69.59;98305.84;5059735;28;20500;-66
2024/03/22 09:02:35;;;;;;;17.70;15.50;;;11.90;78.90;;;11.57;68.81;98303.72;5060339;28;20488;-66
2024/03/22 09:05:03;;;;;;;18.47;15.47;;;12.00;78.20;;;11.19;69.71;98288.25;5060840;28;20482;-66
2024/03/22 09:07:29;;;;;;;20.83;16.70;;;11.80;77.90;;;11.31;69.71;98299.25;5061951;28;20486;-65
2024/03/22 09:09:56;;;;;;;18.97;15.07;;;11.80;77.90;;;11.26;68.67;98307.19;5060361;28;20516;-66
2024/03/22 09:12:23;;;;;;;18.40;14.47;;;11.90;77.30;;;11.23;69.26;98297.59;5058920;28;20559;-69
2024/03/22 09:14:50;;;;;;;18.67;13.37;;;11.80;77.30;;;11.18;69.10;98303.66;5074205;28;20469;-69
2024/03/22 09:17:18;;;;;;;18.70;14.73;;;11.70;77.00;;;11.22;69.25;98290.53;5064311;28;20467;-69
2024/03/22 09:19:45;;;;;;;19.17;14.80;;;11.70;77.20;;;11.38;68.65;98283.00;5061991;28;20548;-68
2024/03/22 09:22:12;;;;;;;19.50;15.60;;;11.80;77.20;;;11.39;68.87;98290.06;5074159;28;20553;-68
2024/03/22 09:24:39;;;;;;;16.67;14.00;;;12.00;77.20;;;11.50;67.58;98286.69;5059338;28;20484;-66
2024/03/22 09:27:08;;;;;;;16.23;13.27;;;12.20;76.40;;;11.28;67.96;98276.16;5057745;28;20478;-68
2024/03/22 09:29:35;;;;;;;18.07;15.00;;;12.20;76.10;;;11.30;68.83;98270.53;5057573;28;20560;-67
2024/03/22 09:32:02;;;;;;;18.87;15.07;;;12.20;76.30;;;11.28;68.96;98273.44;5059595;28;20490;-67
2024/03/22 09:34:31;;;;;;;17.37;15.37;;;12.20;76.40;;;11.58;68.78;98277.50;5057831;28;21057;-68
2024/03/22 09:36:58;;;;;;;16.73;13.70;;;12.30;76.80;;;11.84;67.21;98265.69;5059018;28;20583;-68
2024/03/22 09:39:27;;;;;;;17.00;14.20;;;12.50;76.10;;;11.94;67.38;98264.41;5054821;28;20493;-69
2024/03/22 09:41:57;;;;;;;16.50;13.90;;;12.60;76.00;;;11.72;66.21;98224.97;5059532;28;20468;-67
2024/03/22 09:44:25;;;;;;;16.63;14.57;;;12.80;75.20;;;12.01;66.19;98257.03;5059834;28;20478;-68
2024/03/22 09:46:52;;;;;;;16.40;14.47;;;12.80;75.20;;;12.29;65.88;98245.84;5061050;28;20548;-67
2024/03/22 09:49:23;;;;;;;16.80;13.90;;;13.00;75.50;;;12.45;65.00;98241.72;5066435;28;21473;-70
2024/03/22 09:51:52;;;;;;;20.23;14.77;;;13.20;74.90;;;12.45;65.13;98243.63;5057694;28;20489;-71
2024/03/22 09:54:21;;;;;;;17.83;13.03;;;13.20;74.80;;;12.58;64.88;98234.53;5060214;28;20483;-71
2024/03/22 09:56:50;;;;;;;16.87;14.83;;;13.30;74.60;;;12.96;64.28;98228.06;5059177;28;20519;-70
2024/03/22 09:59:19;;;;;;;19.37;15.07;;;13.60;74.60;;;13.11;64.10;98229.59;5037224;28;20490;-71
2024/03/22 10:01:47;;;;;;;17.37;14.40;;;13.80;74.60;;;13.16;63.63;98221.63;5060597;28;20483;-71
2024/03/22 10:04:14;;;;;;;18.30;14.90;;;13.90;74.10;;;13.49;61.22;98214.13;5058904;28;20499;-70
2024/03/22 10:06:40;;;;;;;16.77;14.47;;;14.20;72.80;;;13.86;61.12;98203.97;5063550;28;20514;-72
2024/03/22 10:09:11;;;;;;;15.30;13.30;;;14.40;72.90;;;14.16;59.48;98197.66;5063192;28;20492;-75
2024/03/22 10:11:37;;;;;;;15.50;13.60;;;14.80;72.20;;;14.37;58.17;98200.03;5063478;28;20468;-75
2024/03/22 10:14:04;;;;;;;16.90;13.90;;;15.10;71.00;;;14.64;57.36;98192.25;5058780;28;20489;-72